createdAt,value
2017-04-02T00:00:08.994Z,20.72
2017-04-02T00:00:44.137Z,20.72
2017-04-02T00:01:16.434Z,20.64
2017-04-02T00:01:48.736Z,20.71
2017-04-02T00:02:20.973Z,20.72
2017-04-02T00:02:53.230Z,20.72
2017-04-02T00:03:25.477Z,20.71
2017-04-02T00:03:57.705Z,20.71
2017-04-02T00:04:29.962Z,20.72
2017-04-02T00:05:02.213Z,20.71
2017-04-02T00:05:34.446Z,20.68
2017-04-02T00:06:06.710Z,20.64
2017-04-02T00:06:39.886Z,20.64
2017-04-02T00:07:12.119Z,20.61
2017-04-02T00:07:44.357Z,20.61
2017-04-02T00:08:17.269Z,20.64
2017-04-02T00:08:49.516Z,20.63
2017-04-02T00:09:22.696Z,20.61
2017-04-02T00:09:54.939Z,20.66
2017-04-02T00:10:27.232Z,20.6
2017-04-02T00:10:59.485Z,20.6
2017-04-02T00:11:31.742Z,20.58
2017-04-02T00:12:03.990Z,20.63
2017-04-02T00:12:36.314Z,20.6
2017-04-02T00:13:08.628Z,20.64
2017-04-02T00:13:40.925Z,20.61
2017-04-02T00:14:13.225Z,20.6
2017-04-02T00:14:45.538Z,20.57
2017-04-02T00:15:17.851Z,20.57
2017-04-02T00:15:50.156Z,20.54
2017-04-02T00:16:22.465Z,20.53
2017-04-02T00:16:54.791Z,20.58
2017-04-02T00:17:27.098Z,20.58
2017-04-02T00:17:59.399Z,20.56
2017-04-02T00:18:31.697Z,20.58
2017-04-02T00:19:04.001Z,20.53
2017-04-02T00:19:36.301Z,20.57
2017-04-02T00:20:08.602Z,20.57
2017-04-02T00:20:40.921Z,20.58
2017-04-02T00:21:13.233Z,20.57
2017-04-02T00:21:45.542Z,20.58
2017-04-02T00:22:17.852Z,20.57
2017-04-02T00:22:50.153Z,20.58
2017-04-02T00:23:22.452Z,20.61
2017-04-02T00:23:54.760Z,20.57
2017-04-02T00:24:27.059Z,20.58
2017-04-02T00:24:59.371Z,20.57
2017-04-02T00:25:31.671Z,20.54
2017-04-02T00:26:03.971Z,20.63
2017-04-02T00:26:36.272Z,20.57
2017-04-02T00:27:08.577Z,20.56
2017-04-02T00:27:40.873Z,20.54
2017-04-02T00:28:13.180Z,20.57
2017-04-02T00:28:45.479Z,20.56
2017-04-02T00:29:17.816Z,20.51
2017-04-02T00:29:50.126Z,20.53
2017-04-02T00:30:22.428Z,20.53
2017-04-02T00:30:54.733Z,20.48
2017-04-02T00:31:27.032Z,20.51
2017-04-02T00:31:59.338Z,20.51
2017-04-02T00:32:31.636Z,20.49
2017-04-02T00:33:03.931Z,20.58
2017-04-02T00:33:36.238Z,20.56
2017-04-02T00:34:08.549Z,20.46
2017-04-02T00:34:40.853Z,20.51
2017-04-02T00:35:13.184Z,20.48
2017-04-02T00:35:45.484Z,20.53
2017-04-02T00:36:17.786Z,20.48
2017-04-02T00:36:50.110Z,20.48
2017-04-02T00:37:22.414Z,20.44
2017-04-02T00:37:54.721Z,20.44
2017-04-02T00:38:27.025Z,20.42
2017-04-02T00:38:59.341Z,20.46
2017-04-02T00:39:31.648Z,20.48
2017-04-02T00:40:03.955Z,20.49
2017-04-02T00:40:36.258Z,20.48
2017-04-02T00:41:08.568Z,20.44
2017-04-02T00:41:40.874Z,20.49
2017-04-02T00:42:13.194Z,20.51
2017-04-02T00:42:45.578Z,20.4
2017-04-02T00:43:17.811Z,20.38
2017-04-02T00:43:50.045Z,20.42
2017-04-02T00:44:22.321Z,20.35
2017-04-02T00:44:55.329Z,20.38
2017-04-02T00:45:28.226Z,20.38
2017-04-02T00:46:00.486Z,20.38
2017-04-02T00:46:32.727Z,20.38
2017-04-02T00:47:04.957Z,20.46
2017-04-02T00:47:37.283Z,20.38
2017-04-02T00:48:09.545Z,20.48
2017-04-02T00:48:41.805Z,20.41
2017-04-02T00:49:14.068Z,20.4
2017-04-02T00:49:46.316Z,20.42
2017-04-02T00:50:18.559Z,20.41
2017-04-02T00:50:50.807Z,20.49
2017-04-02T00:51:23.181Z,20.41
2017-04-02T00:51:55.409Z,20.41
2017-04-02T00:52:27.711Z,20.4
2017-04-02T00:53:00.010Z,20.44
2017-04-02T00:53:32.325Z,20.34
2017-04-02T00:54:04.689Z,20.41
2017-04-02T00:54:36.996Z,20.48
2017-04-02T00:55:09.344Z,20.41
2017-04-02T00:55:41.659Z,20.37
2017-04-02T00:56:13.958Z,20.34
2017-04-02T00:56:46.278Z,20.37
2017-04-02T00:57:18.600Z,20.37
2017-04-02T00:57:50.909Z,20.35
2017-04-02T00:58:23.217Z,20.42
2017-04-02T00:58:55.539Z,20.37
2017-04-02T00:59:27.841Z,20.37
2017-04-02T01:00:00.136Z,20.32
2017-04-02T01:00:32.449Z,20.37
2017-04-02T01:01:04.739Z,20.4
2017-04-02T01:01:37.103Z,20.38
2017-04-02T01:02:09.415Z,20.38
2017-04-02T01:02:41.714Z,20.38
2017-04-02T01:03:14.025Z,20.37
2017-04-02T01:03:46.329Z,20.38
2017-04-02T01:04:18.631Z,20.35
2017-04-02T01:04:50.923Z,20.41
2017-04-02T01:05:23.216Z,20.37
2017-04-02T01:05:55.520Z,20.32
2017-04-02T01:06:27.828Z,20.38
2017-04-02T01:07:00.124Z,20.35
2017-04-02T01:07:32.434Z,20.35
2017-04-02T01:08:04.730Z,20.34
2017-04-02T01:08:37.033Z,20.38
2017-04-02T01:09:09.333Z,20.27
2017-04-02T01:09:41.641Z,20.22
2017-04-02T01:10:13.980Z,20.37
2017-04-02T01:10:46.278Z,20.34
2017-04-02T01:11:18.592Z,20.35
2017-04-02T01:11:50.894Z,20.38
2017-04-02T01:12:23.239Z,20.27
2017-04-02T01:12:55.541Z,20.26
2017-04-02T01:13:27.843Z,20.23
2017-04-02T01:14:00.165Z,20.25
2017-04-02T01:14:32.477Z,20.22
2017-04-02T01:15:04.772Z,20.37
2017-04-02T01:15:37.060Z,20.37
2017-04-02T01:16:09.381Z,20.26
2017-04-02T01:16:41.685Z,20.23
2017-04-02T01:17:14.002Z,20.26
2017-04-02T01:17:46.302Z,20.25
2017-04-02T01:18:18.626Z,20.26
2017-04-02T01:18:50.947Z,20.35
2017-04-02T01:19:23.248Z,20.26
2017-04-02T01:19:55.549Z,20.22
2017-04-02T01:20:27.848Z,20.26
2017-04-02T01:21:00.170Z,20.27
2017-04-02T01:21:32.480Z,20.23
2017-04-02T01:22:04.785Z,20.32
2017-04-02T01:22:37.104Z,20.29
2017-04-02T01:23:09.405Z,20.22
2017-04-02T01:23:41.711Z,20.25
2017-04-02T01:24:14.020Z,20.26
2017-04-02T01:24:46.327Z,20.38
2017-04-02T01:25:18.635Z,20.26
2017-04-02T01:25:50.963Z,20.23
2017-04-02T01:26:23.265Z,20.29
2017-04-02T01:26:55.573Z,20.2
2017-04-02T01:27:27.873Z,20.27
2017-04-02T01:28:00.174Z,20.3
2017-04-02T01:28:32.500Z,20.25
2017-04-02T01:29:04.796Z,20.3
2017-04-02T01:29:37.104Z,20.27
2017-04-02T01:30:09.404Z,20.32
2017-04-02T01:30:41.712Z,20.27
2017-04-02T01:31:14.006Z,20.26
2017-04-02T01:31:46.314Z,20.23
2017-04-02T01:32:18.638Z,20.2
2017-04-02T01:32:50.986Z,20.3
2017-04-02T01:33:23.304Z,20.29
2017-04-02T01:33:55.614Z,20.27
2017-04-02T01:34:27.929Z,20.2
2017-04-02T01:35:00.225Z,20.2
2017-04-02T01:35:32.541Z,20.29
2017-04-02T01:36:04.850Z,20.16
2017-04-02T01:36:37.151Z,20.27
2017-04-02T01:37:09.446Z,20.23
2017-04-02T01:37:41.754Z,20.16
2017-04-02T01:38:14.068Z,20.3
2017-04-02T01:38:46.375Z,20.16
2017-04-02T01:39:18.672Z,20.3
2017-04-02T01:39:50.971Z,20.25
2017-04-02T01:40:23.271Z,20.2
2017-04-02T01:40:55.571Z,20.19
2017-04-02T01:41:27.871Z,20.25
2017-04-02T01:42:00.186Z,20.19
2017-04-02T01:42:32.475Z,20.18
2017-04-02T01:43:04.776Z,20.3
2017-04-02T01:43:37.082Z,20.22
2017-04-02T01:44:09.394Z,20.16
2017-04-02T01:44:41.724Z,20.18
2017-04-02T01:45:14.023Z,20.32
2017-04-02T01:45:46.332Z,20.16
2017-04-02T01:46:18.634Z,20.16
2017-04-02T01:46:50.939Z,20.2
2017-04-02T01:47:23.250Z,20.16
2017-04-02T01:47:55.564Z,20.25
2017-04-02T01:48:27.871Z,20.19
2017-04-02T01:49:00.186Z,20.19
2017-04-02T01:49:32.517Z,20.16
2017-04-02T01:50:04.809Z,20.2
2017-04-02T01:50:37.103Z,20.2
2017-04-02T01:51:09.402Z,20.27
2017-04-02T01:51:41.717Z,20.18
2017-04-02T01:52:14.018Z,20.18
2017-04-02T01:52:46.322Z,20.16
2017-04-02T01:53:18.642Z,20.15
2017-04-02T01:53:50.948Z,20.16
2017-04-02T01:54:23.259Z,20.22
2017-04-02T01:54:55.559Z,20.12
2017-04-02T01:55:27.859Z,20.19
2017-04-02T01:56:00.174Z,20.2
2017-04-02T01:56:32.489Z,20.2
2017-04-02T01:57:04.784Z,20.19
2017-04-02T01:57:37.091Z,20.2
2017-04-02T01:58:09.385Z,20.11
2017-04-02T01:58:41.678Z,20.15
2017-04-02T01:59:13.994Z,20.22
2017-04-02T01:59:46.297Z,20.19
2017-04-02T02:00:18.603Z,20.2
2017-04-02T02:00:50.911Z,20.22
2017-04-02T02:01:23.223Z,20.16
2017-04-02T02:01:55.519Z,20.19
2017-04-02T02:02:27.841Z,20.16
2017-04-02T02:03:00.142Z,20.18
2017-04-02T02:03:32.499Z,20.19
2017-04-02T02:04:04.805Z,20.25
2017-04-02T02:04:37.111Z,20.23
2017-04-02T02:05:09.417Z,20.11
2017-04-02T02:05:41.727Z,20.11
2017-04-02T02:06:14.031Z,20.2
2017-04-02T02:06:46.349Z,20.11
2017-04-02T02:07:18.654Z,20.19
2017-04-02T02:07:50.970Z,20.19
2017-04-02T02:08:23.262Z,20.15
2017-04-02T02:08:55.568Z,20.22
2017-04-02T02:09:27.862Z,20.19
2017-04-02T02:10:00.171Z,20.19
2017-04-02T02:10:32.499Z,20.15
2017-04-02T02:11:04.797Z,20.07
2017-04-02T02:11:37.115Z,20.12
2017-04-02T02:12:09.415Z,20.19
2017-04-02T02:12:41.676Z,20.15
2017-04-02T02:13:13.919Z,20.16
2017-04-02T02:13:46.923Z,20.1
2017-04-02T02:14:19.174Z,20.16
2017-04-02T02:14:51.918Z,20.2
2017-04-02T02:15:24.162Z,20.07
2017-04-02T02:15:56.431Z,20.18
2017-04-02T02:16:28.675Z,20.15
2017-04-02T02:17:01.818Z,20.18
2017-04-02T02:17:34.064Z,20.08
2017-04-02T02:18:06.327Z,20.19
2017-04-02T02:18:38.560Z,20.22
2017-04-02T02:19:10.801Z,20.07
2017-04-02T02:19:43.070Z,20.1
2017-04-02T02:20:15.362Z,20.2
2017-04-02T02:20:47.637Z,20.22
2017-04-02T02:21:19.917Z,20.08
2017-04-02T02:21:52.172Z,20.16
2017-04-02T02:22:24.472Z,20.18
2017-04-02T02:22:56.773Z,20.18
2017-04-02T02:23:29.068Z,20.19
2017-04-02T02:24:01.367Z,20.12
2017-04-02T02:24:33.663Z,20.1
2017-04-02T02:25:05.979Z,20.11
2017-04-02T02:25:38.290Z,20.15
2017-04-02T02:26:10.632Z,20.16
2017-04-02T02:26:42.930Z,20.2
2017-04-02T02:27:15.251Z,20.15
2017-04-02T02:27:47.562Z,20.08
2017-04-02T02:28:19.863Z,20.16
2017-04-02T02:28:52.160Z,20.16
2017-04-02T02:29:24.459Z,20.2
2017-04-02T02:29:56.760Z,20.16
2017-04-02T02:30:29.068Z,20.1
2017-04-02T02:31:01.379Z,20.15
2017-04-02T02:31:33.683Z,20.19
2017-04-02T02:32:05.983Z,20.16
2017-04-02T02:32:38.281Z,20.19
2017-04-02T02:33:10.586Z,20.11
2017-04-02T02:33:42.883Z,20.15
2017-04-02T02:34:15.186Z,20.12
2017-04-02T02:34:47.508Z,20.02
2017-04-02T02:35:19.826Z,20.11
2017-04-02T02:35:52.129Z,20.08
2017-04-02T02:36:24.446Z,20.11
2017-04-02T02:36:56.747Z,20.15
2017-04-02T02:37:29.049Z,20.05
2017-04-02T02:38:01.343Z,20.12
2017-04-02T02:38:33.656Z,20.08
2017-04-02T02:39:05.961Z,20.19
2017-04-02T02:39:38.281Z,20.08
2017-04-02T02:40:10.594Z,20.08
2017-04-02T02:40:42.894Z,20.07
2017-04-02T02:41:15.194Z,20.11
2017-04-02T02:41:47.498Z,20.12
2017-04-02T02:42:19.801Z,20.1
2017-04-02T02:42:52.098Z,20.08
2017-04-02T02:43:24.399Z,20.05
2017-04-02T02:43:56.698Z,20.11
2017-04-02T02:44:29.051Z,20.11
2017-04-02T02:45:01.353Z,20.07
2017-04-02T02:45:33.644Z,20.1
2017-04-02T02:46:05.950Z,20.08
2017-04-02T02:46:38.259Z,20.1
2017-04-02T02:47:10.562Z,20.12
2017-04-02T02:47:42.867Z,20.18
2017-04-02T02:48:15.182Z,20.07
2017-04-02T02:48:47.474Z,20.04
2017-04-02T02:49:19.784Z,20.08
2017-04-02T02:49:52.114Z,20.08
2017-04-02T02:50:24.400Z,20.07
2017-04-02T02:50:56.706Z,20.08
2017-04-02T02:51:29.009Z,20.1
2017-04-02T02:52:01.303Z,20.04
2017-04-02T02:52:33.596Z,20.01
2017-04-02T02:53:05.885Z,20.05
2017-04-02T02:53:38.190Z,20
2017-04-02T02:54:10.502Z,20.02
2017-04-02T02:54:42.806Z,20.07
2017-04-02T02:55:15.117Z,20.02
2017-04-02T02:55:47.408Z,20.1
2017-04-02T02:56:19.705Z,19.98
2017-04-02T02:56:51.999Z,20.1
2017-04-02T02:57:24.309Z,20.05
2017-04-02T02:57:56.616Z,20.04
2017-04-02T02:58:28.982Z,20.07
2017-04-02T02:59:01.292Z,20.08
2017-04-02T02:59:33.613Z,20.01
2017-04-02T03:00:05.919Z,20.08
2017-04-02T03:00:38.223Z,20.02
2017-04-02T03:01:10.526Z,20.07
2017-04-02T03:01:42.828Z,20.08
2017-04-02T03:02:15.139Z,20.04
2017-04-02T03:02:47.438Z,20.05
2017-04-02T03:03:19.750Z,20.08
2017-04-02T03:03:52.077Z,20.11
2017-04-02T03:04:24.423Z,20
2017-04-02T03:04:56.724Z,20.02
2017-04-02T03:05:29.029Z,20.1
2017-04-02T03:06:01.326Z,20.08
2017-04-02T03:06:33.633Z,20.04
2017-04-02T03:07:05.923Z,20
2017-04-02T03:07:38.230Z,20.08
2017-04-02T03:08:10.522Z,20.04
2017-04-02T03:08:42.849Z,20.05
2017-04-02T03:09:15.182Z,20.07
2017-04-02T03:09:47.504Z,20.07
2017-04-02T03:10:19.806Z,20.07
2017-04-02T03:10:52.119Z,20.02
2017-04-02T03:11:24.469Z,20
2017-04-02T03:11:56.773Z,19.97
2017-04-02T03:12:29.079Z,20.05
2017-04-02T03:13:01.382Z,19.98
2017-04-02T03:13:33.680Z,20.07
2017-04-02T03:14:05.995Z,20.02
2017-04-02T03:14:38.304Z,20.02
2017-04-02T03:15:10.622Z,19.97
2017-04-02T03:15:42.929Z,20.04
2017-04-02T03:16:15.230Z,20.04
2017-04-02T03:16:47.534Z,20.07
2017-04-02T03:17:19.841Z,20
2017-04-02T03:17:52.157Z,20.04
2017-04-02T03:18:24.484Z,20.1
2017-04-02T03:18:56.779Z,19.98
2017-04-02T03:19:29.090Z,20.02
2017-04-02T03:20:01.396Z,20.07
2017-04-02T03:20:33.713Z,20
2017-04-02T03:21:06.010Z,20.05
2017-04-02T03:21:38.307Z,19.97
2017-04-02T03:22:10.608Z,20.02
2017-04-02T03:22:42.912Z,20
2017-04-02T03:23:15.228Z,20.08
2017-04-02T03:23:47.573Z,19.98
2017-04-02T03:24:19.879Z,20.05
2017-04-02T03:24:52.225Z,20.02
2017-04-02T03:25:24.525Z,20
2017-04-02T03:25:56.845Z,20.01
2017-04-02T03:26:29.152Z,19.98
2017-04-02T03:27:01.473Z,20.02
2017-04-02T03:27:33.774Z,20.02
2017-04-02T03:28:06.087Z,20.07
2017-04-02T03:28:38.394Z,20.01
2017-04-02T03:29:10.682Z,20
2017-04-02T03:29:42.980Z,19.98
2017-04-02T03:30:15.282Z,19.97
2017-04-02T03:30:47.584Z,19.95
2017-04-02T03:31:19.887Z,20.04
2017-04-02T03:31:52.240Z,20.05
2017-04-02T03:32:24.534Z,20.07
2017-04-02T03:32:56.843Z,20.04
2017-04-02T03:33:29.135Z,20.05
2017-04-02T03:34:01.441Z,19.98
2017-04-02T03:34:33.765Z,19.93
2017-04-02T03:35:06.065Z,19.97
2017-04-02T03:35:38.383Z,19.95
2017-04-02T03:36:10.669Z,20.04
2017-04-02T03:36:42.973Z,19.93
2017-04-02T03:37:15.273Z,20.01
2017-04-02T03:37:47.574Z,20.02
2017-04-02T03:38:19.866Z,19.93
2017-04-02T03:38:52.167Z,20.01
2017-04-02T03:39:24.474Z,20.01
2017-04-02T03:39:56.788Z,19.97
2017-04-02T03:40:29.080Z,19.95
2017-04-02T03:41:01.387Z,20.02
2017-04-02T03:41:33.696Z,19.97
2017-04-02T03:42:06.001Z,19.97
2017-04-02T03:42:38.296Z,20
2017-04-02T03:43:10.602Z,19.95
2017-04-02T03:43:42.910Z,19.97
2017-04-02T03:44:15.203Z,19.97
2017-04-02T03:44:47.501Z,19.92
2017-04-02T03:45:19.813Z,19.95
2017-04-02T03:45:52.116Z,19.97
2017-04-02T03:46:24.426Z,20.04
2017-04-02T03:46:56.736Z,19.87
2017-04-02T03:47:29.088Z,19.97
2017-04-02T03:48:01.396Z,19.97
2017-04-02T03:48:33.695Z,19.97
2017-04-02T03:49:05.995Z,19.9
2017-04-02T03:49:38.311Z,19.87
2017-04-02T03:50:10.617Z,20.02
2017-04-02T03:50:42.918Z,19.97
2017-04-02T03:51:15.236Z,19.87
2017-04-02T03:51:47.528Z,19.95
2017-04-02T03:52:19.811Z,19.95
2017-04-02T03:52:52.050Z,19.95
2017-04-02T03:53:24.313Z,19.95
2017-04-02T03:53:56.552Z,19.87
2017-04-02T03:54:29.371Z,20.02
2017-04-02T03:55:01.609Z,19.97
2017-04-02T03:55:33.859Z,20
2017-04-02T03:56:06.118Z,19.93
2017-04-02T03:56:38.377Z,19.95
2017-04-02T03:57:10.712Z,19.92
2017-04-02T03:57:42.963Z,20.02
2017-04-02T03:58:15.257Z,19.97
2017-04-02T03:58:47.498Z,19.93
2017-04-02T03:59:19.876Z,19.97
2017-04-02T03:59:52.124Z,19.92
2017-04-02T04:00:25.452Z,19.9
2017-04-02T04:00:57.704Z,19.86
2017-04-02T04:01:29.954Z,19.93
2017-04-02T04:02:02.241Z,19.98
2017-04-02T04:02:34.485Z,19.92
2017-04-02T04:03:06.731Z,19.9
2017-04-02T04:03:39.862Z,19.93
2017-04-02T04:04:12.116Z,19.9
2017-04-02T04:04:44.364Z,19.9
2017-04-02T04:05:16.622Z,19.92
2017-04-02T04:05:48.872Z,19.86
2017-04-02T04:06:21.124Z,19.92
2017-04-02T04:06:53.392Z,19.97
2017-04-02T04:07:25.640Z,19.92
2017-04-02T04:07:57.901Z,19.92
2017-04-02T04:08:30.152Z,19.89
2017-04-02T04:09:02.395Z,19.9
2017-04-02T04:09:34.633Z,19.92
2017-04-02T04:10:06.876Z,19.89
2017-04-02T04:10:39.113Z,19.85
2017-04-02T04:11:12.275Z,19.93
2017-04-02T04:11:44.527Z,19.95
2017-04-02T04:12:16.785Z,19.92
2017-04-02T04:12:49.100Z,19.95
2017-04-02T04:13:21.402Z,19.89
2017-04-02T04:13:53.704Z,19.93
2017-04-02T04:14:26.004Z,19.9
2017-04-02T04:14:58.310Z,19.92
2017-04-02T04:15:30.677Z,19.9
2017-04-02T04:16:03.002Z,19.92
2017-04-02T04:16:35.316Z,19.92
2017-04-02T04:17:07.615Z,19.93
2017-04-02T04:17:39.930Z,19.92
2017-04-02T04:18:12.228Z,19.92
2017-04-02T04:18:44.525Z,19.92
2017-04-02T04:19:16.824Z,19.9
2017-04-02T04:19:49.138Z,19.98
2017-04-02T04:20:21.457Z,19.98
2017-04-02T04:20:53.755Z,19.92
2017-04-02T04:21:26.057Z,19.89
2017-04-02T04:21:58.372Z,19.92
2017-04-02T04:22:30.635Z,19.87
2017-04-02T04:23:02.995Z,19.9
2017-04-02T04:23:35.260Z,19.85
2017-04-02T04:24:07.500Z,19.93
2017-04-02T04:24:39.750Z,20.02
2017-04-02T04:25:11.996Z,19.89
2017-04-02T04:25:44.241Z,19.93
2017-04-02T04:26:16.490Z,19.89
2017-04-02T04:26:48.731Z,19.92
2017-04-02T04:27:21.009Z,19.93
2017-04-02T04:27:53.256Z,19.95
2017-04-02T04:28:26.465Z,19.87
2017-04-02T04:28:58.719Z,19.92
2017-04-02T04:29:30.962Z,19.95
2017-04-02T04:30:03.234Z,19.89
2017-04-02T04:30:35.606Z,19.92
2017-04-02T04:31:07.845Z,19.93
2017-04-02T04:31:40.087Z,19.85
2017-04-02T04:32:12.337Z,19.92
2017-04-02T04:32:44.655Z,19.9
2017-04-02T04:33:16.966Z,19.9
2017-04-02T04:33:49.270Z,19.95
2017-04-02T04:34:21.562Z,19.93
2017-04-02T04:34:53.852Z,19.87
2017-04-02T04:35:26.158Z,19.98
2017-04-02T04:35:58.461Z,19.93
2017-04-02T04:36:30.753Z,19.9
2017-04-02T04:37:03.057Z,19.9
2017-04-02T04:37:35.355Z,19.87
2017-04-02T04:38:07.641Z,19.92
2017-04-02T04:38:39.951Z,19.8
2017-04-02T04:39:12.254Z,19.85
2017-04-02T04:39:44.564Z,19.89
2017-04-02T04:40:16.871Z,19.93
2017-04-02T04:40:49.208Z,19.86
2017-04-02T04:41:21.521Z,19.93
2017-04-02T04:41:53.837Z,19.87
2017-04-02T04:42:26.142Z,19.87
2017-04-02T04:42:58.457Z,19.92
2017-04-02T04:43:30.763Z,19.92
2017-04-02T04:44:03.120Z,19.8
2017-04-02T04:44:35.424Z,19.82
2017-04-02T04:45:07.716Z,19.86
2017-04-02T04:45:40.037Z,19.87
2017-04-02T04:46:12.337Z,19.89
2017-04-02T04:46:44.644Z,19.89
2017-04-02T04:47:16.952Z,19.78
2017-04-02T04:47:49.293Z,19.85
2017-04-02T04:48:21.585Z,19.85
2017-04-02T04:48:53.899Z,19.89
2017-04-02T04:49:26.198Z,19.9
2017-04-02T04:49:58.501Z,19.85
2017-04-02T04:50:30.814Z,19.82
2017-04-02T04:51:03.103Z,19.9
2017-04-02T04:51:35.414Z,19.87
2017-04-02T04:52:07.708Z,19.86
2017-04-02T04:52:40.011Z,19.86
2017-04-02T04:53:12.315Z,19.89
2017-04-02T04:53:44.619Z,19.9
2017-04-02T04:54:16.911Z,19.85
2017-04-02T04:54:49.201Z,19.83
2017-04-02T04:55:21.506Z,19.85
2017-04-02T04:55:53.824Z,19.83
2017-04-02T04:56:26.127Z,19.86
2017-04-02T04:56:58.422Z,19.83
2017-04-02T04:57:30.727Z,19.85
2017-04-02T04:58:03.032Z,19.85
2017-04-02T04:58:35.349Z,19.86
2017-04-02T04:59:07.654Z,19.86
2017-04-02T04:59:39.962Z,19.89
2017-04-02T05:00:12.281Z,19.8
2017-04-02T05:00:44.580Z,19.9
2017-04-02T05:01:16.893Z,19.82
2017-04-02T05:01:49.222Z,19.9
2017-04-02T05:02:21.536Z,19.9
2017-04-02T05:02:53.843Z,19.85
2017-04-02T05:03:26.156Z,19.89
2017-04-02T05:03:58.456Z,19.85
2017-04-02T05:04:30.760Z,19.79
2017-04-02T05:05:03.066Z,19.83
2017-04-02T05:05:35.407Z,19.9
2017-04-02T05:06:07.735Z,19.86
2017-04-02T05:06:40.018Z,19.8
2017-04-02T05:07:12.332Z,19.86
2017-04-02T05:07:44.638Z,19.85
2017-04-02T05:08:16.940Z,19.85
2017-04-02T05:08:49.243Z,19.85
2017-04-02T05:09:21.569Z,19.85
2017-04-02T05:09:53.869Z,19.82
2017-04-02T05:10:26.170Z,19.92
2017-04-02T05:10:58.471Z,19.86
2017-04-02T05:11:30.784Z,19.85
2017-04-02T05:12:03.087Z,19.87
2017-04-02T05:12:35.345Z,19.87
2017-04-02T05:13:07.593Z,19.86
2017-04-02T05:13:40.471Z,19.85
2017-04-02T05:14:12.805Z,19.89
2017-04-02T05:14:45.057Z,19.85
2017-04-02T05:15:17.294Z,19.86
2017-04-02T05:15:49.559Z,19.85
2017-04-02T05:16:21.833Z,19.85
2017-04-02T05:16:54.986Z,19.85
2017-04-02T05:17:27.234Z,19.89
2017-04-02T05:17:59.518Z,19.85
2017-04-02T05:18:31.786Z,19.83
2017-04-02T05:19:04.037Z,19.86
2017-04-02T05:19:36.298Z,19.86
2017-04-02T05:20:09.458Z,19.89
2017-04-02T05:20:41.701Z,19.89
2017-04-02T05:21:13.951Z,19.82
2017-04-02T05:21:46.212Z,19.9
2017-04-02T05:22:18.479Z,19.89
2017-04-02T05:22:50.774Z,19.89
2017-04-02T05:23:23.079Z,19.89
2017-04-02T05:23:55.388Z,19.86
2017-04-02T05:24:27.685Z,19.89
2017-04-02T05:24:59.987Z,19.87
2017-04-02T05:25:32.292Z,19.83
2017-04-02T05:26:04.597Z,19.86
2017-04-02T05:26:36.905Z,19.79
2017-04-02T05:27:09.205Z,19.89
2017-04-02T05:27:41.533Z,19.86
2017-04-02T05:28:13.858Z,19.89
2017-04-02T05:28:46.168Z,19.85
2017-04-02T05:29:18.490Z,19.86
2017-04-02T05:29:50.840Z,19.85
2017-04-02T05:30:23.150Z,19.97
2017-04-02T05:30:55.469Z,19.82
2017-04-02T05:31:27.759Z,19.85
2017-04-02T05:32:00.082Z,19.79
2017-04-02T05:32:32.367Z,19.83
2017-04-02T05:33:04.659Z,19.89
2017-04-02T05:33:36.899Z,19.85
2017-04-02T05:34:09.162Z,19.87
2017-04-02T05:34:41.390Z,19.89
2017-04-02T05:35:14.477Z,19.83
2017-04-02T05:35:46.751Z,19.8
2017-04-02T05:36:19.931Z,19.89
2017-04-02T05:36:52.898Z,19.85
2017-04-02T05:37:25.143Z,19.85
2017-04-02T05:37:57.446Z,19.93
2017-04-02T05:38:29.705Z,19.87
2017-04-02T05:39:01.959Z,19.85
2017-04-02T05:39:34.209Z,19.89
2017-04-02T05:40:06.451Z,19.86
2017-04-02T05:40:38.705Z,19.9
2017-04-02T05:41:10.944Z,19.9
2017-04-02T05:41:43.181Z,19.8
2017-04-02T05:42:15.455Z,19.87
2017-04-02T05:42:47.766Z,19.85
2017-04-02T05:43:20.064Z,19.87
2017-04-02T05:43:52.386Z,19.93
2017-04-02T05:44:24.683Z,19.89
2017-04-02T05:44:56.983Z,19.93
2017-04-02T05:45:29.287Z,19.92
2017-04-02T05:46:01.597Z,19.86
2017-04-02T05:46:33.920Z,19.97
2017-04-02T05:47:06.230Z,19.9
2017-04-02T05:47:38.533Z,19.87
2017-04-02T05:48:10.843Z,19.93
2017-04-02T05:48:43.150Z,19.97
2017-04-02T05:49:15.447Z,19.9
2017-04-02T05:49:47.747Z,19.83
2017-04-02T05:50:20.043Z,19.92
2017-04-02T05:50:52.331Z,19.9
2017-04-02T05:51:24.638Z,19.98
2017-04-02T05:51:56.953Z,19.92
2017-04-02T05:52:29.266Z,19.89
2017-04-02T05:53:01.570Z,19.85
2017-04-02T05:53:33.869Z,19.92
2017-04-02T05:54:06.205Z,19.98
2017-04-02T05:54:38.534Z,19.89
2017-04-02T05:55:10.830Z,19.9
2017-04-02T05:55:43.152Z,19.92
2017-04-02T05:56:15.469Z,19.89
2017-04-02T05:56:47.771Z,20
2017-04-02T05:57:20.076Z,19.9
2017-04-02T05:57:52.379Z,19.89
2017-04-02T05:58:24.695Z,19.92
2017-04-02T05:58:57.000Z,19.9
2017-04-02T05:59:29.305Z,19.93
2017-04-02T06:00:01.611Z,19.93
2017-04-02T06:00:33.934Z,19.95
2017-04-02T06:01:06.245Z,19.9
2017-04-02T06:01:38.560Z,19.87
2017-04-02T06:02:10.897Z,19.9
2017-04-02T06:02:43.200Z,19.92
2017-04-02T06:03:15.492Z,19.92
2017-04-02T06:03:47.804Z,19.9
2017-04-02T06:04:20.104Z,19.93
2017-04-02T06:04:52.407Z,19.89
2017-04-02T06:05:24.721Z,19.98
2017-04-02T06:05:57.021Z,19.89
2017-04-02T06:06:29.349Z,19.98
2017-04-02T06:07:01.664Z,19.97
2017-04-02T06:07:33.965Z,19.97
2017-04-02T06:08:06.256Z,19.98
2017-04-02T06:08:38.557Z,20.02
2017-04-02T06:09:10.846Z,19.92
2017-04-02T06:09:43.146Z,19.93
2017-04-02T06:10:15.438Z,19.97
2017-04-02T06:10:47.755Z,20.01
2017-04-02T06:11:20.065Z,20
2017-04-02T06:11:52.379Z,19.93
2017-04-02T06:12:24.677Z,19.95
2017-04-02T06:12:56.983Z,20.02
2017-04-02T06:13:29.302Z,19.93
2017-04-02T06:14:01.607Z,19.95
2017-04-02T06:14:33.917Z,20
2017-04-02T06:15:06.225Z,20.01
2017-04-02T06:15:38.535Z,20.04
2017-04-02T06:16:10.850Z,19.98
2017-04-02T06:16:43.171Z,20.04
2017-04-02T06:17:15.466Z,19.97
2017-04-02T06:17:47.772Z,20.05
2017-04-02T06:18:20.065Z,20.04
2017-04-02T06:18:52.362Z,20.05
2017-04-02T06:19:24.663Z,20.04
2017-04-02T06:19:56.980Z,20.08
2017-04-02T06:20:29.275Z,20.02
2017-04-02T06:21:01.583Z,20.05
2017-04-02T06:21:33.882Z,20.02
2017-04-02T06:22:06.241Z,20.01
2017-04-02T06:22:38.556Z,20.05
2017-04-02T06:23:10.860Z,20.05
2017-04-02T06:23:43.170Z,20.02
2017-04-02T06:24:15.509Z,20.1
2017-04-02T06:24:47.843Z,20.07
2017-04-02T06:25:20.142Z,20.07
2017-04-02T06:25:52.442Z,20.07
2017-04-02T06:26:24.762Z,20.08
2017-04-02T06:26:57.066Z,20.08
2017-04-02T06:27:29.374Z,20.1
2017-04-02T06:28:01.685Z,20.15
2017-04-02T06:28:33.995Z,20.08
2017-04-02T06:29:06.288Z,20.1
2017-04-02T06:29:38.613Z,20.1
2017-04-02T06:30:10.918Z,20.15
2017-04-02T06:30:43.215Z,20.08
2017-04-02T06:31:15.519Z,20.04
2017-04-02T06:31:47.816Z,20.11
2017-04-02T06:32:20.085Z,20.2
2017-04-02T06:32:52.332Z,20.07
2017-04-02T06:33:24.590Z,20.18
2017-04-02T06:33:56.840Z,20.12
2017-04-02T06:34:29.067Z,20.2
2017-04-02T06:35:01.874Z,20.16
2017-04-02T06:35:34.127Z,20.15
2017-04-02T06:36:06.375Z,20.08
2017-04-02T06:36:38.615Z,20.19
2017-04-02T06:37:10.863Z,20.19
2017-04-02T06:37:43.130Z,20.15
2017-04-02T06:38:16.378Z,20.12
2017-04-02T06:38:48.636Z,20.15
2017-04-02T06:39:20.918Z,20.16
2017-04-02T06:39:53.168Z,20.16
2017-04-02T06:40:25.410Z,20.16
2017-04-02T06:40:57.665Z,20.18
2017-04-02T06:41:30.845Z,20.12
2017-04-02T06:42:03.103Z,20.19
2017-04-02T06:42:35.416Z,20.19
2017-04-02T06:43:07.710Z,20.19
2017-04-02T06:43:40.017Z,20.25
2017-04-02T06:44:12.341Z,20.27
2017-04-02T06:44:44.641Z,20.29
2017-04-02T06:45:16.945Z,20.27
2017-04-02T06:45:49.245Z,20.29
2017-04-02T06:46:21.540Z,20.29
2017-04-02T06:46:53.851Z,20.32
2017-04-02T06:47:26.174Z,20.26
2017-04-02T06:47:58.474Z,20.29
2017-04-02T06:48:30.781Z,20.23
2017-04-02T06:49:03.082Z,20.27
2017-04-02T06:49:35.380Z,20.26
2017-04-02T06:50:07.677Z,20.23
2017-04-02T06:50:39.986Z,20.27
2017-04-02T06:51:12.299Z,20.27
2017-04-02T06:51:44.597Z,20.22
2017-04-02T06:52:16.887Z,20.25
2017-04-02T06:52:49.142Z,20.23
2017-04-02T06:53:21.374Z,20.25
2017-04-02T06:53:53.745Z,20.34
2017-04-02T06:54:25.978Z,20.32
2017-04-02T06:54:58.249Z,20.35
2017-04-02T06:55:30.507Z,20.34
2017-04-02T06:56:02.746Z,20.37
2017-04-02T06:56:34.982Z,20.41
2017-04-02T06:57:07.231Z,20.42
2017-04-02T06:57:39.487Z,20.35
2017-04-02T06:58:11.751Z,20.38